Time;durP1;ratioP1;P1;durP2;ratioP2;P2;SDS_P1;SDS_P2;PMS_P1;PMS_P2;Temp;Humidity;BMP_temperature;BMP_pressure;BME280_temperature;BME280_humidity;BME280_pressure;Samples;Min_cycle;Max_cycle;Signal;HPM_P1;HPM_P2
2023/09/16 00:00:54;;;;;;;9.30;6.70;;;;;;;;;;5013226;28;20041;-72
2023/09/16 00:03:19;;;;;;;12.48;7.13;;;;;;;;;;4997203;28;20052;-72
2023/09/16 00:05:45;;;;;;;8.90;6.82;;;;;;;;;;4997114;28;20566;-72
2023/09/16 00:08:10;;;;;;;9.80;6.93;;;;;;;;;;4998010;28;20056;-73
2023/09/16 00:10:35;;;;;;;10.20;7.18;;;;;;;;;;4998762;28;20054;-72
2023/09/16 00:13:01;;;;;;;10.07;7.50;;;;;;;;;;4996977;28;20061;-73
2023/09/16 00:15:27;;;;;;;11.77;5.97;;;;;;;;;;4997440;28;20049;-72
2023/09/16 00:17:53;;;;;;;10.15;6.65;;;;;;;;;;4996594;28;20042;-72
2023/09/16 00:20:18;;;;;;;9.07;7.07;;;;;;;;;;4997677;28;20423;-73
2023/09/16 00:22:45;;;;;;;8.38;6.65;;;;;;;;;;4996468;28;20042;-72
2023/09/16 00:25:11;;;;;;;9.80;6.88;;;;;;;;;;4996675;28;20049;-72
2023/09/16 00:27:39;;;;;;;11.15;6.72;;;;;;;;;;4997470;28;20046;-73
2023/09/16 00:30:05;;;;;;;8.60;6.65;;;;;;;;;;4996591;28;20073;-73
2023/09/16 00:32:31;;;;;;;9.88;6.93;;;;;;;;;;4998568;28;20056;-73
2023/09/16 00:34:58;;;;;;;9.80;6.90;;;;;;;;;;4980394;28;20464;-73
2023/09/16 00:37:24;;;;;;;10.63;7.53;;;;;;;;;;5013634;28;20104;-73
2023/09/16 00:39:50;;;;;;;10.90;7.22;;;;;;;;;;4997398;28;20821;-73
2023/09/16 00:42:16;;;;;;;10.32;7.10;;;;;;;;;;4980302;28;20076;-73
2023/09/16 00:44:42;;;;;;;9.50;7.30;;;;;;;;;;4998094;28;20058;-73
2023/09/16 00:47:07;;;;;;;11.13;7.20;;;;;;;;;;4982424;28;20140;-73
2023/09/16 00:49:33;;;;;;;9.45;6.97;;;;;;;;;;4999773;28;20156;-73
2023/09/16 00:51:59;;;;;;;11.50;7.13;;;;;;;;;;5014737;28;20050;-73
2023/09/16 00:54:26;;;;;;;10.70;7.20;;;;;;;;;;5001438;28;20046;-73
2023/09/16 00:56:52;;;;;;;11.27;7.20;;;;;;;;;;4982786;28;20503;-73
2023/09/16 00:59:22;;;;;;;9.70;7.03;;;;;;;;;;5000629;28;20053;-73
2023/09/16 01:01:50;;;;;;;10.75;8.02;;;;;;;;;;4983287;28;20077;-73
2023/09/16 01:04:16;;;;;;;9.88;7.45;;;;;;;;;;4999565;28;20056;-73
2023/09/16 01:06:47;;;;;;;12.38;7.50;;;;;;;;;;4999036;28;20056;-73
2023/09/16 01:09:16;;;;;;;;;;;;;;;;;;5000502;28;20140;-73
2023/09/16 01:11:42;;;;;;;9.38;7.25;;;;;;;;;;5015484;28;20542;-73
2023/09/16 01:14:11;;;;;;;11.20;8.35;;;;;;;;;;4996958;28;20140;-73
2023/09/16 01:16:46;;;;;;;9.43;7.25;;;;;;;;;;5014317;28;20050;-73
2023/09/16 01:19:30;;;;;;;14.30;8.25;;;;;;;;;;4980694;28;20112;-73
2023/09/16 01:21:57;;;;;;;17.20;9.00;;;;;;;;;;4980469;28;20053;-73
2023/09/16 01:24:25;;;;;;;13.82;8.90;;;;;;;;;;5014600;28;20042;-73
2023/09/16 01:26:51;;;;;;;12.18;9.18;;;;;;;;;;4998925;28;20549;-73
2023/09/16 01:29:17;;;;;;;12.25;8.50;;;;;;;;;;4981907;28;20041;-72
2023/09/16 01:31:44;;;;;;;15.45;8.63;;;;;;;;;;4998157;28;20079;-73
2023/09/16 01:34:17;;;;;;;15.73;9.52;;;;;;;;;;5014251;28;20057;-73
2023/09/16 01:36:43;;;;;;;16.98;10.30;;;;;;;;;;4982175;28;20072;-73
2023/09/16 01:39:11;;;;;;;18.38;10.65;;;;;;;;;;4999742;28;20318;-73
2023/09/16 01:41:38;;;;;;;18.65;10.18;;;;;;;;;;4998284;28;20049;-73
2023/09/16 01:44:05;;;;;;;13.90;9.50;;;;;;;;;;4997361;28;20674;-73
2023/09/16 01:46:31;;;;;;;16.48;10.38;;;;;;;;;;4997953;28;20049;-73
2023/09/16 01:48:56;;;;;;;15.13;9.93;;;;;;;;;;4998283;28;20042;-73
2023/09/16 01:51:24;;;;;;;17.20;10.93;;;;;;;;;;5015433;28;20041;-74
2023/09/16 01:53:49;;;;;;;17.52;11.60;;;;;;;;;;4998129;28;20144;-74
2023/09/16 01:56:15;;;;;;;17.23;10.75;;;;;;;;;;4997021;28;20183;-73
2023/09/16 01:58:40;;;;;;;16.48;10.73;;;;;;;;;;5014726;28;20065;-73
2023/09/16 02:01:10;;;;;;;18.33;11.25;;;;;;;;;;4997637;28;20057;-73
2023/09/16 02:03:36;;;;;;;20.98;11.68;;;;;;;;;;4998121;28;20053;-73
2023/09/16 02:06:02;;;;;;;19.65;10.07;;;;;;;;;;4996634;28;20046;-73
2023/09/16 02:08:27;;;;;;;15.30;10.23;;;;;;;;;;5013909;28;20069;-73
2023/09/16 02:10:53;;;;;;;14.27;9.45;;;;;;;;;;4998053;28;20052;-73
2023/09/16 02:13:18;;;;;;;15.52;9.82;;;;;;;;;;4981275;28;20580;-73
2023/09/16 02:15:43;;;;;;;13.32;9.07;;;;;;;;;;4997209;28;20104;-73
2023/09/16 02:18:09;;;;;;;15.02;9.30;;;;;;;;;;4996420;28;20473;-73
2023/09/16 02:20:34;;;;;;;13.90;9.68;;;;;;;;;;4997930;28;20049;-73
2023/09/16 02:23:02;;;;;;;15.20;8.82;;;;;;;;;;4997629;28;20052;-73
2023/09/16 02:25:27;;;;;;;15.63;9.40;;;;;;;;;;4997643;28;20037;-73
2023/09/16 02:27:53;;;;;;;14.13;9.13;;;;;;;;;;4980622;28;20767;-73
2023/09/16 02:30:18;;;;;;;13.48;8.60;;;;;;;;;;4980476;28;20054;-73
2023/09/16 02:32:44;;;;;;;13.13;8.95;;;;;;;;;;4981594;28;20057;-73
2023/09/16 02:35:09;;;;;;;10.98;8.18;;;;;;;;;;4996861;28;20056;-73
2023/09/16 02:37:35;;;;;;;14.45;8.68;;;;;;;;;;5013815;28;21077;-73
2023/09/16 02:40:02;;;;;;;13.98;8.88;;;;;;;;;;4996498;28;20554;-72
2023/09/16 02:42:28;;;;;;;11.95;9.00;;;;;;;;;;4996941;28;20038;-73
2023/09/16 02:44:53;;;;;;;14.50;9.70;;;;;;;;;;4997279;28;20045;-73
2023/09/16 02:47:20;;;;;;;13.18;9.50;;;;;;;;;;4996562;28;20112;-73
2023/09/16 02:49:46;;;;;;;15.52;10.38;;;;;;;;;;4980664;28;20050;-73
2023/09/16 02:52:12;;;;;;;15.13;10.50;;;;;;;;;;4996372;28;20519;-73
2023/09/16 02:54:37;;;;;;;19.10;9.93;;;;;;;;;;4997103;28;20050;-73
2023/09/16 02:57:03;;;;;;;17.60;10.38;;;;;;;;;;5012945;28;20049;-73
2023/09/16 02:59:29;;;;;;;19.92;11.98;;;;;;;;;;4997152;28;20053;-73
2023/09/16 03:01:54;;;;;;;21.10;11.82;;;;;;;;;;4997675;28;21048;-73
2023/09/16 03:04:20;;;;;;;17.35;11.38;;;;;;;;;;4996051;28;20511;-73
2023/09/16 03:06:47;;;;;;;18.98;12.25;;;;;;;;;;4995961;28;20045;-73
2023/09/16 03:09:14;;;;;;;18.55;11.65;;;;;;;;;;4996221;28;20049;-72
2023/09/16 03:11:40;;;;;;;19.08;12.02;;;;;;;;;;4980162;28;20185;-74
2023/09/16 03:14:06;;;;;;;15.98;11.23;;;;;;;;;;4995931;28;20187;-73
2023/09/16 03:16:31;;;;;;;17.63;11.88;;;;;;;;;;4996176;28;20361;-74
2023/09/16 03:18:57;;;;;;;16.92;10.75;;;;;;;;;;4997129;28;20034;-73
2023/09/16 03:21:25;;;;;;;20.55;11.32;;;;;;;;;;4980355;28;20053;-73
2023/09/16 03:23:54;;;;;;;14.93;10.35;;;;;;;;;;4996723;28;20041;-73
2023/09/16 03:26:20;;;;;;;15.65;10.45;;;;;;;;;;4995571;28;20068;-73
2023/09/16 03:28:48;;;;;;;14.55;10.10;;;;;;;;;;4996621;28;20576;-73
2023/09/16 03:31:15;;;;;;;16.17;10.52;;;;;;;;;;4995963;28;20084;-73
2023/09/16 03:33:41;;;;;;;15.00;11.00;;;;;;;;;;4995368;28;20064;-74
2023/09/16 03:36:08;;;;;;;16.70;10.27;;;;;;;;;;5011786;28;20050;-72
2023/09/16 03:38:34;;;;;;;14.68;10.52;;;;;;;;;;4995190;28;20041;-73
2023/09/16 03:41:02;;;;;;;18.88;10.55;;;;;;;;;;4979672;28;20041;-73
2023/09/16 03:43:29;;;;;;;16.95;10.82;;;;;;;;;;4975219;28;20048;-73
2023/09/16 03:45:55;;;;;;;15.15;10.23;;;;;;;;;;4994858;28;20037;-72
2023/09/16 03:48:22;;;;;;;16.05;10.20;;;;;;;;;;4993891;28;20078;-74
2023/09/16 03:50:47;;;;;;;16.10;10.48;;;;;;;;;;5011560;28;20053;-73
2023/09/16 03:53:13;;;;;;;17.45;10.95;;;;;;;;;;4994940;28;20056;-73
2023/09/16 03:55:41;;;;;;;17.52;10.70;;;;;;;;;;4994613;28;20140;-73
2023/09/16 03:58:06;;;;;;;17.92;10.80;;;;;;;;;;4994595;28;20168;-73
2023/09/16 04:00:32;;;;;;;17.92;10.52;;;;;;;;;;4994698;28;20042;-74
2023/09/16 04:02:57;;;;;;;16.75;10.98;;;;;;;;;;4994110;28;20196;-73
2023/09/16 04:05:23;;;;;;;17.10;11.90;;;;;;;;;;4993441;28;20065;-73
2023/09/16 04:07:48;;;;;;;18.30;12.45;;;;;;;;;;4994550;28;20057;-73
2023/09/16 04:10:14;;;;;;;18.70;11.95;;;;;;;;;;5010889;28;20050;-73
2023/09/16 04:12:39;;;;;;;20.27;12.27;;;;;;;;;;4994856;28;20065;-73
2023/09/16 04:15:05;;;;;;;18.38;11.93;;;;;;;;;;4977741;28;20146;-73
2023/09/16 04:17:31;;;;;;;23.23;12.38;;;;;;;;;;4993995;28;20129;-73
2023/09/16 04:19:57;;;;;;;20.13;11.45;;;;;;;;;;4997803;28;20188;-73
2023/09/16 04:22:22;;;;;;;18.40;11.25;;;;;;;;;;4997091;28;20495;-73
2023/09/16 04:24:48;;;;;;;20.80;11.35;;;;;;;;;;4998947;28;20050;-73
2023/09/16 04:27:14;;;;;;;15.18;10.90;;;;;;;;;;4997277;28;20434;-73
2023/09/16 04:29:39;;;;;;;15.43;10.88;;;;;;;;;;5013897;28;20164;-74
2023/09/16 04:32:05;;;;;;;13.43;9.77;;;;;;;;;;4997489;28;20053;-73
2023/09/16 04:34:35;;;;;;;17.30;10.93;;;;;;;;;;5014872;28;20065;-73
2023/09/16 04:37:00;;;;;;;16.48;10.43;;;;;;;;;;4997373;28;20503;-73
2023/09/16 04:39:28;;;;;;;17.48;10.95;;;;;;;;;;4997301;28;20510;-73
2023/09/16 04:41:53;;;;;;;17.52;10.93;;;;;;;;;;4996562;28;20137;-73
2023/09/16 04:44:21;;;;;;;14.57;10.13;;;;;;;;;;4997118;28;20056;-73
2023/09/16 04:46:47;;;;;;;17.55;10.40;;;;;;;;;;4998590;28;20049;-74
2023/09/16 04:49:13;;;;;;;15.60;10.80;;;;;;;;;;4998860;28;20046;-73
2023/09/16 04:51:38;;;;;;;17.42;11.60;;;;;;;;;;4997660;28;20045;-77
2023/09/16 04:54:07;;;;;;;17.08;11.15;;;;;;;;;;4998194;28;21016;-73
2023/09/16 04:56:34;;;;;;;20.35;11.60;;;;;;;;;;4997772;28;20076;-73
2023/09/16 04:59:01;;;;;;;20.52;12.65;;;;;;;;;;4998432;28;20053;-73
2023/09/16 05:01:26;;;;;;;19.10;11.77;;;;;;;;;;5012285;28;20038;-73
2023/09/16 05:03:52;;;;;;;18.48;11.75;;;;;;;;;;5012534;28;20064;-73
2023/09/16 05:06:17;;;;;;;18.48;11.93;;;;;;;;;;4997174;28;20135;-73
2023/09/16 05:08:43;;;;;;;19.45;12.02;;;;;;;;;;4996601;28;20179;-73
2023/09/16 05:11:09;;;;;;;18.70;11.15;;;;;;;;;;5013700;28;20126;-73
2023/09/16 05:13:50;;;;;;;15.88;10.55;;;;;;;;;;4996052;28;20054;-73
2023/09/16 05:16:15;;;;;;;20.02;10.07;;;;;;;;;;5012630;28;20045;-73
2023/09/16 05:18:41;;;;;;;17.42;10.43;;;;;;;;;;4996980;28;20146;-73
2023/09/16 05:21:07;;;;;;;19.20;11.23;;;;;;;;;;4997206;28;20050;-73
2023/09/16 05:23:34;;;;;;;20.48;11.98;;;;;;;;;;4996016;28;20038;-73
2023/09/16 05:26:00;;;;;;;25.90;14.13;;;;;;;;;;5011981;28;20057;-73
2023/09/16 05:28:31;;;;;;;26.38;14.55;;;;;;;;;;4996949;28;20042;-73
2023/09/16 05:30:58;;;;;;;22.52;13.98;;;;;;;;;;4997159;28;20046;-72
2023/09/16 05:33:25;;;;;;;25.10;13.10;;;;;;;;;;4995318;28;20046;-72
2023/09/16 05:35:51;;;;;;;23.27;13.63;;;;;;;;;;4996797;28;21226;-73
2023/09/16 05:38:17;;;;;;;19.90;12.45;;;;;;;;;;4997775;28;20056;-72
2023/09/16 05:40:42;;;;;;;22.48;12.38;;;;;;;;;;4997365;28;20065;-72
2023/09/16 05:43:08;;;;;;;20.45;13.48;;;;;;;;;;4997258;28;20037;-72
2023/09/16 05:45:36;;;;;;;15.00;10.10;;;;;;;;;;4991688;28;20038;-73
2023/09/16 05:48:04;;;;;;;19.45;11.07;;;;;;;;;;5011453;28;20072;-73
2023/09/16 05:50:32;;;;;;;13.20;9.35;;;;;;;;;;4995681;28;20049;-73
2023/09/16 05:52:58;;;;;;;13.93;10.07;;;;;;;;;;4996617;28;20104;-72
2023/09/16 05:55:24;;;;;;;13.88;9.15;;;;;;;;;;4980167;28;20054;-73
2023/09/16 05:57:50;;;;;;;13.27;8.43;;;;;;;;;;5011283;28;20133;-73
2023/09/16 06:00:16;;;;;;;16.02;9.80;;;;;;;;;;4996247;28;20549;-72
2023/09/16 06:02:42;;;;;;;11.38;8.25;;;;;;;;;;4980300;28;20045;-73
2023/09/16 06:05:08;;;;;;;12.25;8.75;;;;;;;;;;4996806;28;20044;-73
2023/09/16 06:07:44;;;;;;;9.85;7.30;;;;;;;;;;4994983;28;21457;-72
2023/09/16 06:10:09;;;;;;;9.65;7.65;;;;;;;;;;4978358;28;20045;-72
2023/09/16 06:12:35;;;;;;;11.00;7.95;;;;;;;;;;4994245;28;20192;-72
2023/09/16 06:15:01;;;;;;;10.25;8.07;;;;;;;;;;5012471;28;20048;-73
2023/09/16 06:17:26;;;;;;;11.60;7.93;;;;;;;;;;4994658;28;20038;-72
2023/09/16 06:19:54;;;;;;;10.63;7.28;;;;;;;;;;4994842;28;20034;-72
2023/09/16 06:22:23;;;;;;;10.38;7.15;;;;;;;;;;4979961;28;20041;-73
2023/09/16 06:24:52;;;;;;;10.25;7.68;;;;;;;;;;4997320;28;20410;-72
2023/09/16 06:27:21;;;;;;;;;;;;;;;;;;4995223;28;20170;-72
2023/09/16 06:29:47;;;;;;;8.80;7.28;;;;;;;;;;4995073;28;19929;-73
2023/09/16 06:32:14;;;;;;;10.63;7.78;;;;;;;;;;4994033;28;20042;-72
2023/09/16 06:34:39;;;;;;;9.10;7.32;;;;;;;;;;4979246;28;20057;-73
2023/09/16 06:37:05;;;;;;;9.90;7.53;;;;;;;;;;4993467;28;20050;-73
2023/09/16 06:39:32;;;;;;;8.75;7.10;;;;;;;;;;4994298;28;20459;-72
2023/09/16 06:41:58;;;;;;;13.02;9.30;;;;;;;;;;4992598;28;20042;-73
2023/09/16 06:44:31;;;;;;;15.23;9.95;;;;;;;;;;5010272;28;20038;-72
2023/09/16 06:46:56;;;;;;;12.32;8.35;;;;;;;;;;4978593;28;20034;-73
2023/09/16 06:49:22;;;;;;;11.13;7.55;;;;;;;;;;4995326;28;20049;-73
2023/09/16 06:51:48;;;;;;;8.57;6.88;;;;;;;;;;4995587;28;20072;-73
2023/09/16 06:54:14;;;;;;;10.98;6.90;;;;;;;;;;5010592;28;20073;-72
2023/09/16 06:56:39;;;;;;;9.98;7.65;;;;;;;;;;4977639;28;20050;-72
2023/09/16 06:59:05;;;;;;;10.25;7.53;;;;;;;;;;4994401;28;20048;-73
2023/09/16 07:01:31;;;;;;;11.82;7.13;;;;;;;;;;4996028;28;20053;-72
2023/09/16 07:03:57;;;;;;;8.80;7.25;;;;;;;;;;5010256;28;20080;-73
2023/09/16 07:06:23;;;;;;;9.10;7.05;;;;;;;;;;4994914;28;20142;-73
2023/09/16 07:08:49;;;;;;;11.52;6.43;;;;;;;;;;4996239;28;20099;-73
2023/09/16 07:11:17;;;;;;;8.73;6.70;;;;;;;;;;4995041;28;20107;-71
2023/09/16 07:13:46;;;;;;;8.30;6.25;;;;;;;;;;4992709;28;20058;-71
2023/09/16 07:16:13;;;;;;;7.07;5.22;;;;;;;;;;4994662;28;20881;-71
2023/09/16 07:18:38;;;;;;;8.98;5.65;;;;;;;;;;4996384;28;20495;-73
2023/09/16 07:21:04;;;;;;;4.78;4.18;;;;;;;;;;4996511;28;20053;-71
2023/09/16 07:23:29;;;;;;;5.68;4.53;;;;;;;;;;4996111;28;21142;-71
2023/09/16 07:25:56;;;;;;;6.10;4.90;;;;;;;;;;4995269;28;20507;-72
2023/09/16 07:28:23;;;;;;;6.32;5.35;;;;;;;;;;4996572;28;20046;-71
2023/09/16 07:30:48;;;;;;;6.15;5.10;;;;;;;;;;4994275;28;20057;-71
2023/09/16 07:33:14;;;;;;;5.13;4.63;;;;;;;;;;4994188;28;20203;-72
2023/09/16 07:35:40;;;;;;;5.10;4.57;;;;;;;;;;4989620;28;20045;-72
2023/09/16 07:38:09;;;;;;;4.57;4.18;;;;;;;;;;4993213;28;20079;-72
2023/09/16 07:40:35;;;;;;;4.57;4.05;;;;;;;;;;4995576;28;20112;-72
2023/09/16 07:43:01;;;;;;;6.13;3.83;;;;;;;;;;4995427;28;20604;-72
2023/09/16 07:45:27;;;;;;;7.13;4.43;;;;;;;;;;4995638;28;20045;-72
2023/09/16 07:47:53;;;;;;;3.70;3.30;;;;;;;;;;4994450;28;20046;-72
2023/09/16 07:50:18;;;;;;;3.58;3.28;;;;;;;;;;4995364;28;20042;-72
2023/09/16 07:52:44;;;;;;;4.07;3.65;;;;;;;;;;4995218;28;20156;-72
2023/09/16 07:55:09;;;;;;;3.90;3.50;;;;;;;;;;5011497;28;20056;-72
2023/09/16 07:57:35;;;;;;;6.07;3.28;;;;;;;;;;4993039;28;20049;-73
2023/09/16 08:00:01;;;;;;;3.67;3.38;;;;;;;;;;4995336;28;20050;-71
2023/09/16 08:02:26;;;;;;;6.00;3.63;;;;;;;;;;4996745;28;20888;-71
2023/09/16 08:04:52;;;;;;;4.28;3.58;;;;;;;;;;4994986;28;20116;-71
2023/09/16 08:07:17;;;;;;;4.28;3.45;;;;;;;;;;4994572;28;20566;-72
2023/09/16 08:09:43;;;;;;;3.60;3.30;;;;;;;;;;4994703;28;20045;-73
2023/09/16 08:12:08;;;;;;;3.60;3.30;;;;;;;;;;4988338;28;20049;-73
2023/09/16 08:14:34;;;;;;;3.75;3.00;;;;;;;;;;4971306;28;20501;-73
2023/09/16 08:17:03;;;;;;;4.68;3.47;;;;;;;;;;4988633;28;20070;-73
2023/09/16 08:19:30;;;;;;;5.15;3.00;;;;;;;;;;4988922;28;20058;-73
2023/09/16 08:21:56;;;;;;;8.00;3.40;;;;;;;;;;4991547;28;20054;-74
2023/09/16 08:24:22;;;;;;;3.85;3.13;;;;;;;;;;4993425;28;20104;-73
2023/09/16 08:26:48;;;;;;;4.57;3.15;;;;;;;;;;4995577;28;20053;-73
2023/09/16 08:29:13;;;;;;;5.03;2.70;;;;;;;;;;4996769;28;20042;-73
2023/09/16 08:31:39;;;;;;;3.72;3.03;;;;;;;;;;4993629;28;20175;-74
2023/09/16 08:34:04;;;;;;;3.00;2.80;;;;;;;;;;4995728;28;20140;-73
2023/09/16 08:36:30;;;;;;;3.78;3.08;;;;;;;;;;4998143;28;20041;-73
2023/09/16 08:38:55;;;;;;;4.68;2.85;;;;;;;;;;5014461;28;20402;-72
2023/09/16 08:41:42;;;;;;;3.45;3.13;;;;;;;;;;4998123;28;20538;-72
2023/09/16 08:44:09;;;;;;;3.45;2.92;;;;;;;;;;4998711;28;20701;-72
2023/09/16 08:46:41;;;;;;;4.43;3.35;;;;;;;;;;5000167;28;20145;-72
2023/09/16 08:49:08;;;;;;;;;;;;;;;;;;5002447;28;20052;-72
2023/09/16 08:51:39;;;;;;;3.88;3.42;;;;;;;;;;4999980;28;19922;-72
2023/09/16 08:54:07;;;;;;;3.65;3.35;;;;;;;;;;4998045;28;20081;-73
2023/09/16 08:56:33;;;;;;;3.47;3.17;;;;;;;;;;4998177;28;20057;-72
2023/09/16 08:58:59;;;;;;;4.45;3.55;;;;;;;;;;5013365;28;20049;-73
2023/09/16 09:01:25;;;;;;;4.10;3.25;;;;;;;;;;4997026;28;20065;-73
2023/09/16 09:03:51;;;;;;;7.18;3.13;;;;;;;;;;4997151;28;20050;-73
2023/09/16 09:06:17;;;;;;;2.67;2.47;;;;;;;;;;5003538;28;20048;-72
2023/09/16 09:08:43;;;;;;;3.83;2.83;;;;;;;;;;5000794;28;20049;-73
2023/09/16 09:11:12;;;;;;;3.53;3.22;;;;;;;;;;5003163;28;20145;-73
2023/09/16 09:13:40;;;;;;;6.25;3.53;;;;;;;;;;5004909;28;20506;-73
2023/09/16 09:16:06;;;;;;;3.28;3.03;;;;;;;;;;5017497;28;20883;-72
2023/09/16 09:18:33;;;;;;;5.65;3.08;;;;;;;;;;5006082;28;20486;-72
2023/09/16 09:20:58;;;;;;;3.55;3.25;;;;;;;;;;5005247;28;20886;-73
2023/09/16 09:23:25;;;;;;;4.35;2.97;;;;;;;;;;5005363;28;20157;-73
2023/09/16 09:25:50;;;;;;;3.80;3.28;;;;;;;;;;5004039;28;20073;-73
2023/09/16 09:28:16;;;;;;;3.58;3.20;;;;;;;;;;5001174;28;20402;-73
2023/09/16 09:30:41;;;;;;;3.60;3.30;;;;;;;;;;5003822;28;20058;-73
2023/09/16 09:33:13;;;;;;;7.22;3.75;;;;;;;;;;5014280;28;20136;-72
2023/09/16 09:35:39;;;;;;;4.28;3.88;;;;;;;;;;5000631;28;20050;-73
2023/09/16 09:38:05;;;;;;;4.75;3.78;;;;;;;;;;4999079;28;20065;-72
2023/09/16 09:40:30;;;;;;;4.38;3.35;;;;;;;;;;5002255;28;20053;-72
2023/09/16 09:42:56;;;;;;;4.03;3.30;;;;;;;;;;5002313;28;20041;-73
2023/09/16 09:45:23;;;;;;;3.75;3.35;;;;;;;;;;5001938;28;20038;-72
2023/09/16 09:47:51;;;;;;;3.92;3.25;;;;;;;;;;5013705;28;20058;-72
2023/09/16 09:50:19;;;;;;;3.83;3.42;;;;;;;;;;4997205;28;20038;-74
2023/09/16 09:52:52;;;;;;;3.88;3.35;;;;;;;;;;5000256;28;20057;-72
2023/09/16 09:55:23;;;;;;;4.63;3.53;;;;;;;;;;5015425;28;20665;-72
2023/09/16 09:57:52;;;;;;;6.97;3.17;;;;;;;;;;4995713;28;20120;-70
2023/09/16 10:00:19;;;;;;;3.83;3.40;;;;;;;;;;4998092;28;20514;-72
2023/09/16 10:02:47;;;;;;;3.78;3.15;;;;;;;;;;4997924;28;20108;-72
2023/09/16 10:05:17;;;;;;;4.03;2.88;;;;;;;;;;5001769;28;20471;-72
2023/09/16 10:07:44;;;;;;;3.73;3.10;;;;;;;;;;5000699;28;20494;-71
2023/09/16 10:10:13;;;;;;;3.33;3.03;;;;;;;;;;5016384;28;20343;-73
2023/09/16 10:12:40;;;;;;;3.58;3.20;;;;;;;;;;5015764;28;20149;-73
2023/09/16 10:15:07;;;;;;;3.50;3.20;;;;;;;;;;4999010;28;20056;-73
2023/09/16 10:17:32;;;;;;;4.70;3.25;;;;;;;;;;5002355;28;20049;-71
2023/09/16 10:19:59;;;;;;;3.15;2.67;;;;;;;;;;4999365;28;20054;-72
2023/09/16 10:22:25;;;;;;;2.35;2.15;;;;;;;;;;5002245;28;20081;-71
2023/09/16 10:24:50;;;;;;;2.70;2.50;;;;;;;;;;4999669;28;20154;-72
2023/09/16 10:27:22;;;;;;;2.95;2.67;;;;;;;;;;5002762;28;20056;-73
2023/09/16 10:29:48;;;;;;;2.90;2.70;;;;;;;;;;5000467;28;20044;-72
2023/09/16 10:32:16;;;;;;;2.88;2.67;;;;;;;;;;5001190;28;20057;-71
2023/09/16 10:34:47;;;;;;;4.70;2.72;;;;;;;;;;5000158;28;20046;-71
2023/09/16 10:37:16;;;;;;;6.95;2.67;;;;;;;;;;5014247;28;20067;-72
2023/09/16 10:39:44;;;;;;;2.88;2.60;;;;;;;;;;4998464;28;20044;-72
2023/09/16 10:42:10;;;;;;;3.58;3.00;;;;;;;;;;4994531;28;20095;-71
2023/09/16 10:44:37;;;;;;;2.80;2.60;;;;;;;;;;4995844;28;20810;-70
2023/09/16 10:47:04;;;;;;;4.22;2.90;;;;;;;;;;4995424;28;20660;-72
2023/09/16 10:49:30;;;;;;;4.15;3.20;;;;;;;;;;4997997;28;20119;-71
2023/09/16 10:52:03;;;;;;;3.00;2.80;;;;;;;;;;4997179;28;20049;-71
2023/09/16 10:54:43;;;;;;;4.10;2.90;;;;;;;;;;4995527;28;20102;-72
2023/09/16 10:57:26;;;;;;;3.22;2.90;;;;;;;;;;4997324;28;20507;-72
2023/09/16 10:59:52;;;;;;;2.80;2.60;;;;;;;;;;4996161;28;20096;-72
2023/09/16 11:02:30;;;;;;;3.55;3.25;;;;;;;;;;4997834;28;20977;-74
2023/09/16 11:04:55;;;;;;;3.40;3.10;;;;;;;;;;5012017;28;20045;-74
2023/09/16 11:07:21;;;;;;;3.75;2.92;;;;;;;;;;4994368;28;20077;-73
2023/09/16 11:09:48;;;;;;;2.90;2.70;;;;;;;;;;4995321;28;20133;-74
2023/09/16 11:12:16;;;;;;;2.80;2.60;;;;;;;;;;4994524;28;20128;-74
2023/09/16 11:14:43;;;;;;;3.00;2.80;;;;;;;;;;4994148;28;20054;-73
2023/09/16 11:17:15;;;;;;;3.10;2.80;;;;;;;;;;4993993;28;20053;-74
2023/09/16 11:19:42;;;;;;;5.10;3.13;;;;;;;;;;4995173;28;20050;-74
2023/09/16 11:22:08;;;;;;;2.70;2.50;;;;;;;;;;4994534;28;20053;-73
2023/09/16 11:24:35;;;;;;;3.10;2.72;;;;;;;;;;4995316;28;20145;-74
2023/09/16 11:27:01;;;;;;;3.10;2.90;;;;;;;;;;4993445;28;20046;-74
2023/09/16 11:29:28;;;;;;;2.80;2.58;;;;;;;;;;4994169;28;20617;-74
2023/09/16 11:31:55;;;;;;;3.47;3.17;;;;;;;;;;4992167;28;20113;-73
2023/09/16 11:34:23;;;;;;;3.15;2.95;;;;;;;;;;5012026;28;20570;-74
2023/09/16 11:37:01;;;;;;;3.28;2.97;;;;;;;;;;4997556;28;20049;-73
2023/09/16 11:39:40;;;;;;;2.72;2.53;;;;;;;;;;4997360;28;20038;-74
2023/09/16 11:42:07;;;;;;;3.20;2.80;;;;;;;;;;4994866;28;20495;-74
2023/09/16 11:44:34;;;;;;;3.60;3.30;;;;;;;;;;4997304;28;20616;-73
2023/09/16 11:47:00;;;;;;;3.20;2.90;;;;;;;;;;4995107;28;20406;-73
2023/09/16 11:49:26;;;;;;;3.28;2.97;;;;;;;;;;4996398;28;20220;-73
2023/09/16 11:51:51;;;;;;;4.18;3.30;;;;;;;;;;4995833;28;20485;-74
2023/09/16 11:54:18;;;;;;;4.18;3.08;;;;;;;;;;4995745;28;20046;-74
2023/09/16 11:56:43;;;;;;;3.05;2.80;;;;;;;;;;4995835;28;20050;-74
2023/09/16 11:59:11;;;;;;;2.67;2.47;;;;;;;;;;4996028;28;20160;-74
2023/09/16 12:01:40;;;;;;;2.80;2.60;;;;;;;;;;4998022;28;20041;-74
2023/09/16 12:04:07;;;;;;;3.42;2.75;;;;;;;;;;5010434;28;20049;-73
2023/09/16 12:06:37;;;;;;;3.00;2.78;;;;;;;;;;4996486;28;20125;-74
2023/09/16 12:09:06;;;;;;;2.70;2.50;;;;;;;;;;4996030;28;20065;-74
2023/09/16 12:11:32;;;;;;;2.58;2.38;;;;;;;;;;4994697;28;20296;-74
2023/09/16 12:14:00;;;;;;;3.15;2.90;;;;;;;;;;4994937;28;20594;-73
2023/09/16 12:16:26;;;;;;;3.30;3.00;;;;;;;;;;4996407;28;20108;-73
2023/09/16 12:18:52;;;;;;;3.10;2.80;;;;;;;;;;4997343;28;20049;-74
2023/09/16 12:21:18;;;;;;;3.75;2.63;;;;;;;;;;4995973;28;20058;-74
2023/09/16 12:23:45;;;;;;;2.53;2.33;;;;;;;;;;4995108;28;20080;-74
2023/09/16 12:26:12;;;;;;;3.30;2.80;;;;;;;;;;4994592;28;20053;-74
2023/09/16 12:28:39;;;;;;;4.88;2.50;;;;;;;;;;4995273;28;20186;-74
2023/09/16 12:31:08;;;;;;;3.00;2.70;;;;;;;;;;4992619;28;20076;-74
2023/09/16 12:33:42;;;;;;;2.75;2.50;;;;;;;;;;4994598;28;20099;-74
2023/09/16 12:36:08;;;;;;;2.40;2.17;;;;;;;;;;4991395;28;20411;-74
2023/09/16 12:38:36;;;;;;;3.30;3.03;;;;;;;;;;4994716;28;20053;-74
2023/09/16 12:41:02;;;;;;;5.50;3.13;;;;;;;;;;4996696;28;20060;-73
2023/09/16 12:43:30;;;;;;;2.88;2.67;;;;;;;;;;4997199;28;20053;-74
2023/09/16 12:45:57;;;;;;;2.47;2.20;;;;;;;;;;5011923;28;20066;-74
2023/09/16 12:48:22;;;;;;;3.15;2.70;;;;;;;;;;4999206;28;20569;-74
2023/09/16 12:50:48;;;;;;;3.47;2.80;;;;;;;;;;4998616;28;20054;-73
2023/09/16 12:53:13;;;;;;;4.75;3.00;;;;;;;;;;4997180;28;20069;-75
2023/09/16 12:55:39;;;;;;;2.78;2.58;;;;;;;;;;4998612;28;20046;-71
2023/09/16 12:58:07;;;;;;;3.70;2.50;;;;;;;;;;4997527;28;20061;-72
2023/09/16 13:00:33;;;;;;;2.60;2.40;;;;;;;;;;4998996;28;20119;-71
2023/09/16 13:03:00;;;;;;;3.00;2.70;;;;;;;;;;4998101;28;20049;-72
2023/09/16 13:05:29;;;;;;;3.05;2.33;;;;;;;;;;5013374;28;20048;-75
2023/09/16 13:07:57;;;;;;;2.80;2.60;;;;;;;;;;4996546;28;20074;-75
2023/09/16 13:10:22;;;;;;;3.20;2.90;;;;;;;;;;4998770;28;20050;-71
2023/09/16 13:12:48;;;;;;;2.80;2.50;;;;;;;;;;4998833;28;20406;-72
2023/09/16 13:15:17;;;;;;;3.08;2.88;;;;;;;;;;4997254;28;20641;-73
2023/09/16 13:17:44;;;;;;;3.63;2.90;;;;;;;;;;4998664;28;20694;-73
2023/09/16 13:20:17;;;;;;;2.97;2.78;;;;;;;;;;4997523;28;20786;-72
2023/09/16 13:22:45;;;;;;;3.25;2.63;;;;;;;;;;4999367;28;20061;-72
2023/09/16 13:25:40;;;;;;;2.90;2.63;;;;;;;;;;4997983;28;20050;-72
2023/09/16 13:28:15;;;;;;;4.95;2.92;;;;;;;;;;4996171;28;20104;-72
2023/09/16 13:30:45;;;;;;;3.33;3.03;;;;;;;;;;4998885;28;20057;-73
2023/09/16 13:33:10;;;;;;;2.58;2.35;;;;;;;;;;4998136;28;20084;-73
2023/09/16 13:35:38;;;;;;;3.20;2.90;;;;;;;;;;4998768;28;20183;-73
2023/09/16 13:38:05;;;;;;;2.80;2.55;;;;;;;;;;4996577;28;20054;-72
2023/09/16 13:40:31;;;;;;;4.07;2.60;;;;;;;;;;4997488;28;20060;-72
2023/09/16 13:42:57;;;;;;;3.10;2.83;;;;;;;;;;4998294;28;20068;-73
2023/09/16 13:45:23;;;;;;;3.35;2.58;;;;;;;;;;4995909;28;20049;-70
2023/09/16 13:48:08;;;;;;;2.78;2.42;;;;;;;;;;4997345;28;20068;-71
2023/09/16 13:50:35;;;;;;;4.15;2.97;;;;;;;;;;4997309;28;20045;-72
2023/09/16 13:53:03;;;;;;;3.00;2.65;;;;;;;;;;4996465;28;20057;-72
2023/09/16 13:55:29;;;;;;;3.10;2.80;;;;;;;;;;4997814;28;20112;-74
2023/09/16 13:57:56;;;;;;;2.67;2.38;;;;;;;;;;4996524;28;20475;-72
2023/09/16 14:00:22;;;;;;;2.78;2.58;;;;;;;;;;4995555;28;20060;-72
2023/09/16 14:02:48;;;;;;;3.67;2.40;;;;;;;;;;4996131;28;20064;-72
2023/09/16 14:05:13;;;;;;;2.90;2.70;;;;;;;;;;4997072;28;20041;-72
2023/09/16 14:07:39;;;;;;;2.60;2.40;;;;;;;;;;4997758;28;20053;-72
2023/09/16 14:10:05;;;;;;;2.53;2.33;;;;;;;;;;4995751;28;20077;-71
2023/09/16 14:12:31;;;;;;;5.13;2.33;;;;;;;;;;4995617;28;20056;-72
2023/09/16 14:14:57;;;;;;;3.10;2.40;;;;;;;;;;4995817;28;20075;-72
2023/09/16 14:17:23;;;;;;;3.72;2.13;;;;;;;;;;4995945;28;20042;-72
2023/09/16 14:19:51;;;;;;;3.75;2.22;;;;;;;;;;4995900;28;20057;-72
2023/09/16 14:22:18;;;;;;;2.88;2.67;;;;;;;;;;4996423;28;20046;-73
2023/09/16 14:24:44;;;;;;;2.63;2.42;;;;;;;;;;4997529;28;20041;-74
2023/09/16 14:27:10;;;;;;;2.35;2.10;;;;;;;;;;4996624;28;20799;-72
2023/09/16 14:29:35;;;;;;;2.80;2.58;;;;;;;;;;5013796;28;20050;-74
2023/09/16 14:32:01;;;;;;;3.03;2.55;;;;;;;;;;4995973;28;20103;-72
2023/09/16 14:34:27;;;;;;;3.05;2.50;;;;;;;;;;4995675;28;20573;-73